createdAt,value
2022-12-24T00:00:25.558Z,0
2022-12-24T00:01:25.503Z,0
2022-12-24T00:02:27.101Z,0
2022-12-24T00:03:28.153Z,0
2022-12-24T00:04:27.631Z,0
2022-12-24T00:05:28.911Z,0
2022-12-24T00:06:29.913Z,0
2022-12-24T00:07:30.849Z,0
2022-12-24T00:08:31.086Z,0
2022-12-24T00:09:31.361Z,0
2022-12-24T00:10:31.856Z,0
2022-12-24T00:11:33.108Z,0
2022-12-24T00:12:33.367Z,0
2022-12-24T00:13:33.727Z,0
2022-12-24T00:14:34.386Z,0
2022-12-24T00:15:35.618Z,0
2022-12-24T00:16:36.113Z,0
2022-12-24T00:17:36.366Z,0
2022-12-24T00:18:40.025Z,0
2022-12-24T00:19:36.280Z,0
2022-12-24T00:20:37.664Z,0
2022-12-24T00:21:38.591Z,0
2022-12-24T00:22:39.250Z,0
2022-12-24T00:23:40.822Z,0
2022-12-24T00:24:40.800Z,0
2022-12-24T00:25:41.764Z,0
2022-12-24T00:26:42.977Z,0
2022-12-24T00:27:43.641Z,0
2022-12-24T00:28:44.877Z,0
2022-12-24T00:29:45.548Z,0
2022-12-24T00:30:47.538Z,0
2022-12-24T00:31:47.762Z,0
2022-12-24T00:32:48.019Z,0
2022-12-24T00:33:48.239Z,0
2022-12-24T00:34:48.475Z,0
2022-12-24T00:35:49.457Z,0
2022-12-24T00:36:49.408Z,0
2022-12-24T00:37:50.376Z,0
2022-12-24T00:38:50.901Z,0
2022-12-24T00:39:51.444Z,0
2022-12-24T00:40:51.531Z,0
2022-12-24T00:41:52.471Z,0
2022-12-24T00:42:53.121Z,0
2022-12-24T00:43:54.637Z,0
2022-12-24T00:44:55.162Z,0
2022-12-24T00:45:55.316Z,0
2022-12-24T00:46:55.574Z,0
2022-12-24T00:47:56.065Z,0
2022-12-24T00:48:56.266Z,0
2022-12-24T00:49:56.780Z,0
2022-12-24T00:50:58.148Z,0
2022-12-24T00:51:58.097Z,0
2022-12-24T00:53:00.123Z,0
2022-12-24T00:53:59.113Z,0
2022-12-24T00:55:00.404Z,0
2022-12-24T00:56:00.643Z,0
2022-12-24T00:57:01.155Z,0
2022-12-24T00:58:01.654Z,0
2022-12-24T00:59:01.022Z,0
2022-12-24T01:00:02.555Z,0
2022-12-24T01:01:02.652Z,0
2022-12-24T01:02:04.332Z,0
2022-12-24T01:03:04.743Z,0
2022-12-24T01:04:04.603Z,0
2022-12-24T01:05:04.868Z,0
2022-12-24T01:06:05.401Z,0
2022-12-24T01:07:05.640Z,0
2022-12-24T01:08:06.152Z,0
2022-12-24T01:09:05.809Z,0
2022-12-24T01:10:06.822Z,0
2022-12-24T01:11:08.128Z,0
2022-12-24T01:12:08.364Z,0
2022-12-24T01:13:09.284Z,0
2022-12-24T01:14:09.786Z,0
2022-12-24T01:15:09.748Z,0
2022-12-24T01:16:10.676Z,0
2022-12-24T01:17:10.057Z,0
2022-12-24T01:18:10.982Z,0
2022-12-24T01:19:12.237Z,0
2022-12-24T01:20:12.317Z,0
2022-12-24T01:21:12.128Z,0
2022-12-24T01:22:13.369Z,0
2022-12-24T01:23:13.873Z,0
2022-12-24T01:24:13.550Z,0
2022-12-24T01:25:14.540Z,0
2022-12-24T01:26:15.779Z,0
2022-12-24T01:27:16.438Z,0
2022-12-24T01:28:17.641Z,0
2022-12-24T01:29:17.584Z,0
2022-12-24T01:30:18.841Z,0
2022-12-24T01:31:20.516Z,0
2022-12-24T01:32:20.815Z,0
2022-12-24T01:33:21.061Z,0
2022-12-24T01:34:21.030Z,0
2022-12-24T01:35:22.283Z,0
2022-12-24T01:36:22.853Z,0
2022-12-24T01:37:22.789Z,0
2022-12-24T01:38:23.036Z,0
2022-12-24T01:39:23.261Z,0
2022-12-24T01:40:23.980Z,0
2022-12-24T01:41:24.653Z,0
2022-12-24T01:42:24.311Z,0
2022-12-24T01:43:25.330Z,0
2022-12-24T01:44:31.477Z,0
2022-12-24T01:45:27.104Z,0
2022-12-24T01:46:27.741Z,0
2022-12-24T01:47:27.457Z,0
2022-12-24T01:48:27.830Z,0
2022-12-24T01:49:28.835Z,0
2022-12-24T01:50:30.104Z,0
2022-12-24T01:51:30.166Z,0
2022-12-24T01:52:30.100Z,0
2022-12-24T01:53:31.332Z,0
2022-12-24T01:54:31.875Z,0
2022-12-24T01:55:32.491Z,0
2022-12-24T01:56:32.799Z,0
2022-12-24T01:57:33.200Z,0
2022-12-24T01:58:33.430Z,0
2022-12-24T01:59:33.659Z,0
2022-12-24T02:00:34.730Z,0
2022-12-24T02:01:36.312Z,0
2022-12-24T02:02:36.600Z,0
2022-12-24T02:03:36.338Z,0
2022-12-24T02:04:36.304Z,0
2022-12-24T02:05:37.548Z,0
2022-12-24T02:06:37.487Z,0
2022-12-24T02:07:37.716Z,0
2022-12-24T02:08:37.636Z,0
2022-12-24T02:09:38.590Z,0
2022-12-24T02:10:39.831Z,0
2022-12-24T02:11:39.840Z,0
2022-12-24T02:12:41.046Z,0
2022-12-24T02:13:41.683Z,0
2022-12-24T02:14:42.335Z,0
2022-12-24T02:15:43.661Z,0
2022-12-24T02:16:43.751Z,0
2022-12-24T02:17:44.713Z,0
2022-12-24T02:18:45.967Z,0
2022-12-24T02:19:45.661Z,0
2022-12-24T02:20:47.200Z,0
2022-12-24T02:21:47.949Z,0
2022-12-24T02:22:48.181Z,0
2022-12-24T02:23:48.812Z,0
2022-12-24T02:24:48.741Z,0
2022-12-24T02:25:48.744Z,0
2022-12-24T02:26:49.709Z,0
2022-12-24T02:27:50.939Z,0
2022-12-24T02:28:51.174Z,0
2022-12-24T02:29:51.104Z,0
2022-12-24T02:30:52.110Z,0
2022-12-24T02:31:52.862Z,0
2022-12-24T02:32:53.076Z,0
2022-12-24T02:33:52.708Z,0
2022-12-24T02:34:53.906Z,0
2022-12-24T02:35:54.434Z,0
2022-12-24T02:36:55.064Z,0
2022-12-24T02:37:55.294Z,0
2022-12-24T02:38:55.263Z,0
2022-12-24T02:39:56.201Z,0
2022-12-24T02:40:57.197Z,0
2022-12-24T02:41:57.807Z,0
2022-12-24T02:42:57.733Z,0
2022-12-24T02:43:57.668Z,0
2022-12-24T02:44:58.670Z,0
2022-12-24T02:46:09.855Z,0
2022-12-24T02:47:00.463Z,0
2022-12-24T02:48:00.494Z,0
2022-12-24T02:49:01.454Z,0
2022-12-24T02:50:02.722Z,0
2022-12-24T02:51:02.406Z,0
2022-12-24T02:52:03.177Z,0
2022-12-24T02:53:03.425Z,0
2022-12-24T02:54:04.370Z,0
2022-12-24T02:55:05.625Z,0
2022-12-24T02:56:05.609Z,0
2022-12-24T02:57:05.541Z,0
2022-12-24T02:58:06.749Z,0
2022-12-24T02:59:07.722Z,0
2022-12-24T03:00:08.659Z,0
2022-12-24T03:01:10.513Z,0
2022-12-24T03:02:11.452Z,0
2022-12-24T03:03:11.788Z,0
2022-12-24T03:04:12.319Z,0
2022-12-24T03:05:12.539Z,0
2022-12-24T03:06:12.784Z,0
2022-12-24T03:07:13.021Z,0
2022-12-24T03:08:13.243Z,0
2022-12-24T03:09:13.621Z,0
2022-12-24T03:10:14.633Z,0
2022-12-24T03:11:14.944Z,0
2022-12-24T03:12:15.252Z,0
2022-12-24T03:13:15.462Z,0
2022-12-24T03:14:16.415Z,0
2022-12-24T03:15:17.390Z,0
2022-12-24T03:16:17.532Z,0
2022-12-24T03:17:18.180Z,0
2022-12-24T03:18:18.719Z,0
2022-12-24T03:19:18.649Z,0
2022-12-24T03:20:20.157Z,0
2022-12-24T03:21:20.691Z,0
2022-12-24T03:22:21.076Z,0
2022-12-24T03:23:20.712Z,0
2022-12-24T03:24:21.384Z,0
2022-12-24T03:25:21.751Z,0
2022-12-24T03:26:22.899Z,0
2022-12-24T03:27:23.123Z,0
2022-12-24T03:28:23.043Z,0
2022-12-24T03:29:23.715Z,0
2022-12-24T03:30:25.206Z,0
2022-12-24T03:31:26.073Z,0
2022-12-24T03:32:25.993Z,0
2022-12-24T03:33:25.916Z,0
2022-12-24T03:34:26.583Z,0
2022-12-24T03:35:28.115Z,0
2022-12-24T03:36:27.817Z,0
2022-12-24T03:37:29.094Z,0
2022-12-24T03:38:28.478Z,0
2022-12-24T03:39:29.705Z,0
2022-12-24T03:40:30.200Z,0
2022-12-24T03:41:30.718Z,0
2022-12-24T03:42:31.050Z,0
2022-12-24T03:43:31.263Z,0
2022-12-24T03:44:31.195Z,0
2022-12-24T03:45:32.055Z,0
2022-12-24T03:46:33.121Z,0
2022-12-24T03:47:33.333Z,0
2022-12-24T03:48:43.363Z,0
2022-12-24T03:49:34.573Z,0
2022-12-24T03:50:35.077Z,0
2022-12-24T03:51:35.330Z,0
2022-12-24T03:52:36.132Z,0
2022-12-24T03:53:36.349Z,0
2022-12-24T03:54:36.297Z,0
2022-12-24T03:55:37.220Z,0
2022-12-24T03:56:37.537Z,0
2022-12-24T03:57:37.216Z,0
2022-12-24T03:58:37.865Z,0
2022-12-24T03:59:38.899Z,0
2022-12-24T04:00:39.872Z,0
2022-12-24T04:01:42.031Z,0
2022-12-24T04:02:41.656Z,0
2022-12-24T04:03:41.904Z,0
2022-12-24T04:04:42.448Z,0
2022-12-24T04:05:42.653Z,0
2022-12-24T04:06:43.646Z,0
2022-12-24T04:07:43.876Z,0
2022-12-24T04:08:43.808Z,0
2022-12-24T04:09:45.034Z,0
2022-12-24T04:10:45.538Z,0
2022-12-24T04:11:45.786Z,0
2022-12-24T04:12:46.958Z,0
2022-12-24T04:13:47.514Z,0
2022-12-24T04:14:47.759Z,0
2022-12-24T04:15:48.011Z,0
2022-12-24T04:16:49.036Z,0
2022-12-24T04:17:49.064Z,0
2022-12-24T04:18:48.991Z,0
2022-12-24T04:19:49.655Z,0
2022-12-24T04:20:51.160Z,0
2022-12-24T04:21:51.437Z,0
2022-12-24T04:22:51.555Z,0
2022-12-24T04:23:51.533Z,0
2022-12-24T04:24:52.520Z,0
2022-12-24T04:25:52.176Z,0
2022-12-24T04:26:53.161Z,0
2022-12-24T04:27:54.367Z,0
2022-12-24T04:28:55.049Z,0
2022-12-24T04:29:56.254Z,0
2022-12-24T04:30:55.907Z,0
2022-12-24T04:31:57.239Z,0
2022-12-24T04:32:57.630Z,0
2022-12-24T04:33:57.884Z,0
2022-12-24T04:34:57.808Z,0
2022-12-24T04:35:58.765Z,0
2022-12-24T04:37:00.301Z,0
2022-12-24T04:38:00.832Z,0
2022-12-24T04:39:00.288Z,0
2022-12-24T04:40:01.789Z,0
2022-12-24T04:41:02.055Z,0
2022-12-24T04:42:02.325Z,0
2022-12-24T04:43:02.375Z,0
2022-12-24T04:44:03.900Z,0
2022-12-24T04:45:03.831Z,0
2022-12-24T04:46:04.734Z,0
2022-12-24T04:47:05.991Z,0
2022-12-24T04:48:06.934Z,0
2022-12-24T04:49:06.592Z,0
2022-12-24T04:50:07.234Z,0
2022-12-24T04:51:08.746Z,0
2022-12-24T04:52:08.759Z,0
2022-12-24T04:53:08.840Z,0
2022-12-24T04:54:10.105Z,0
2022-12-24T04:55:09.790Z,0
2022-12-24T04:56:11.046Z,0
2022-12-24T04:57:11.615Z,0
2022-12-24T04:58:11.832Z,0
2022-12-24T04:59:12.350Z,0
2022-12-24T05:00:12.293Z,0
2022-12-24T05:01:12.432Z,0
2022-12-24T05:02:13.907Z,0
2022-12-24T05:03:13.496Z,0
2022-12-24T05:04:13.883Z,0
2022-12-24T05:05:14.852Z,0
2022-12-24T05:06:18.212Z,0
2022-12-24T05:07:16.175Z,0
2022-12-24T05:08:17.157Z,0
2022-12-24T05:09:18.400Z,0
2022-12-24T05:10:18.664Z,0
2022-12-24T05:11:19.314Z,0
2022-12-24T05:12:20.321Z,0
2022-12-24T05:13:21.624Z,0
2022-12-24T05:14:21.831Z,0
2022-12-24T05:15:22.057Z,0
2022-12-24T05:16:22.446Z,0
2022-12-24T05:17:22.752Z,0
2022-12-24T05:18:23.676Z,0
2022-12-24T05:19:24.369Z,0
2022-12-24T05:20:25.321Z,0
2022-12-24T05:21:25.991Z,0
2022-12-24T05:22:26.984Z,0
2022-12-24T05:23:27.606Z,0
2022-12-24T05:24:27.545Z,0
2022-12-24T05:25:27.942Z,0
2022-12-24T05:26:28.910Z,0
2022-12-24T05:27:29.873Z,0
2022-12-24T05:28:31.176Z,0
2022-12-24T05:29:31.700Z,0
2022-12-24T05:30:32.107Z,0
2022-12-24T05:31:32.956Z,0
2022-12-24T05:32:33.204Z,0
2022-12-24T05:33:33.798Z,0
2022-12-24T05:34:34.311Z,0
2022-12-24T05:35:34.561Z,0
2022-12-24T05:36:34.836Z,0
2022-12-24T05:37:35.802Z,0
2022-12-24T05:38:37.049Z,0
2022-12-24T05:39:37.039Z,0
2022-12-24T05:40:37.973Z,0
2022-12-24T05:41:39.533Z,0
2022-12-24T05:42:40.081Z,0
2022-12-24T05:43:40.702Z,0
2022-12-24T05:44:40.652Z,0
2022-12-24T05:45:42.152Z,0
2022-12-24T05:46:43.176Z,0
2022-12-24T05:47:49.027Z,0
2022-12-24T05:48:43.686Z,0
2022-12-24T05:49:44.635Z,0
2022-12-24T05:50:45.556Z,0
2022-12-24T05:51:45.852Z,0
2022-12-24T05:52:46.105Z,0
2022-12-24T05:53:46.912Z,0
2022-12-24T05:54:47.563Z,0
2022-12-24T05:55:48.509Z,0
2022-12-24T05:56:49.147Z,0
2022-12-24T05:57:50.414Z,0
2022-12-24T05:58:50.622Z,0
2022-12-24T05:59:51.134Z,0
2022-12-24T06:00:50.792Z,0
2022-12-24T06:01:52.252Z,0
2022-12-24T06:02:52.402Z,0
2022-12-24T06:03:53.482Z,0
2022-12-24T06:04:54.052Z,0
2022-12-24T06:05:54.031Z,0
2022-12-24T06:06:55.265Z,0
2022-12-24T06:07:55.841Z,0
2022-12-24T06:08:56.134Z,0
2022-12-24T06:09:56.493Z,0
2022-12-24T06:10:57.413Z,0
2022-12-24T06:11:57.769Z,0
2022-12-24T06:13:00.095Z,0
2022-12-24T06:13:58.872Z,0
2022-12-24T06:15:00.109Z,0
2022-12-24T06:16:00.795Z,0
2022-12-24T06:17:01.084Z,0
2022-12-24T06:18:01.615Z,0
2022-12-24T06:19:01.835Z,0
2022-12-24T06:20:01.835Z,0
2022-12-24T06:21:02.874Z,0
2022-12-24T06:22:04.128Z,0
2022-12-24T06:23:04.086Z,0
2022-12-24T06:24:05.151Z,0
2022-12-24T06:25:06.416Z,0
2022-12-24T06:26:06.386Z,0
2022-12-24T06:27:06.748Z,0
2022-12-24T06:28:07.478Z,0
2022-12-24T06:29:08.387Z,0
2022-12-24T06:30:09.602Z,0
2022-12-24T06:31:17.011Z,0
2022-12-24T06:32:09.679Z,0
2022-12-24T06:33:10.925Z,0
2022-12-24T06:34:11.189Z,0
2022-12-24T06:35:11.165Z,0
2022-12-24T06:36:17.393Z,0
2022-12-24T06:37:11.231Z,0
2022-12-24T06:38:12.530Z,0
2022-12-24T06:39:12.786Z,0
2022-12-24T06:40:12.428Z,0
2022-12-24T06:41:13.647Z,0
2022-12-24T06:42:14.292Z,0
2022-12-24T06:43:15.818Z,0
2022-12-24T06:44:16.548Z,0
2022-12-24T06:45:24.363Z,0
2022-12-24T06:46:17.382Z,0
2022-12-24T06:47:17.877Z,0
2022-12-24T06:48:18.569Z,0
2022-12-24T06:49:19.293Z,0
2022-12-24T06:50:20.356Z,0
2022-12-24T06:51:21.294Z,0
2022-12-24T06:52:22.535Z,0
2022-12-24T06:53:22.767Z,0
2022-12-24T06:54:23.838Z,0
2022-12-24T06:55:24.567Z,0
2022-12-24T06:56:25.823Z,0
2022-12-24T06:57:26.320Z,0
2022-12-24T06:58:26.887Z,0
2022-12-24T06:59:27.415Z,0
2022-12-24T07:00:27.763Z,0
2022-12-24T07:01:30.126Z,0
2022-12-24T07:02:29.907Z,0
2022-12-24T07:03:29.903Z,0
2022-12-24T07:04:37.030Z,0
2022-12-24T07:05:30.963Z,0
2022-12-24T07:06:31.951Z,0
2022-12-24T07:07:32.155Z,0
2022-12-24T07:08:32.393Z,0
2022-12-24T07:09:33.341Z,0
2022-12-24T07:10:33.269Z,0
2022-12-24T07:11:34.552Z,0
2022-12-24T07:12:34.785Z,0
2022-12-24T07:13:35.791Z,0
2022-12-24T07:14:36.667Z,0
2022-12-24T07:15:38.180Z,0
2022-12-24T07:16:38.811Z,0
2022-12-24T07:17:39.691Z,0
2022-12-24T07:18:39.738Z,0
2022-12-24T07:19:40.032Z,0
2022-12-24T07:20:40.503Z,0
2022-12-24T07:21:42.010Z,0
2022-12-24T07:22:41.946Z,0
2022-12-24T07:23:42.222Z,0
2022-12-24T07:24:43.474Z,0
2022-12-24T07:25:43.106Z,0
2022-12-24T07:26:44.040Z,0
2022-12-24T07:27:44.218Z,0
2022-12-24T07:28:45.833Z,0
2022-12-24T07:29:46.037Z,0
2022-12-24T07:30:46.173Z,0
2022-12-24T07:31:46.730Z,0
2022-12-24T07:32:46.486Z,0
2022-12-24T07:33:48.048Z,0
2022-12-24T07:34:48.509Z,0
2022-12-24T07:35:55.645Z,0
2022-12-24T07:36:49.726Z,0
2022-12-24T07:37:50.360Z,0
2022-12-24T07:38:50.732Z,0
2022-12-24T07:39:51.423Z,0
2022-12-24T07:40:51.782Z,0
2022-12-24T07:41:58.649Z,0
2022-12-24T07:42:52.589Z,0
2022-12-24T07:43:53.870Z,0
2022-12-24T07:44:53.914Z,0
2022-12-24T07:45:54.848Z,0
2022-12-24T07:46:55.702Z,0
2022-12-24T07:47:55.689Z,0
2022-12-24T07:48:57.215Z,0
2022-12-24T07:49:57.159Z,0
2022-12-24T07:50:58.111Z,0
2022-12-24T07:51:58.039Z,0
2022-12-24T07:52:58.403Z,0
2022-12-24T07:53:59.655Z,0
2022-12-24T07:55:00.416Z,0
2022-12-24T07:56:04.209Z,0
2022-12-24T07:57:01.822Z,5.63
2022-12-24T07:58:02.759Z,5.63
2022-12-24T07:59:04.420Z,5.63
2022-12-24T08:00:04.689Z,5.63
2022-12-24T08:01:06.155Z,5.63
2022-12-24T08:02:08.038Z,5.63
2022-12-24T08:03:07.215Z,5.63
2022-12-24T08:04:07.588Z,5.63
2022-12-24T08:05:07.959Z,5.63
2022-12-24T08:06:08.505Z,5.63
2022-12-24T08:07:08.466Z,5.63
2022-12-24T08:08:08.841Z,5.63
2022-12-24T08:09:10.248Z,5.63
2022-12-24T08:10:10.504Z,5.63
2022-12-24T08:11:11.386Z,5.63
2022-12-24T08:12:11.336Z,5.63
2022-12-24T08:13:12.566Z,5.63
2022-12-24T08:14:13.108Z,5.63
2022-12-24T08:15:12.832Z,5.63
2022-12-24T08:16:14.470Z,5.63
2022-12-24T08:17:15.036Z,5.63
2022-12-24T08:18:15.294Z,5.63
2022-12-24T08:19:15.244Z,5.63
2022-12-24T08:20:16.483Z,5.63
2022-12-24T08:21:16.482Z,5.63
2022-12-24T08:22:17.460Z,5.63
2022-12-24T08:23:19.014Z,5.63
2022-12-24T08:24:19.262Z,5.63
2022-12-24T08:25:19.640Z,5.63
2022-12-24T08:26:19.579Z,5.63
2022-12-24T08:27:21.076Z,5.63
2022-12-24T08:28:21.319Z,5.63
2022-12-24T08:29:22.572Z,5.63
2022-12-24T08:30:32.317Z,5.63
2022-12-24T08:31:24.046Z,5.63
2022-12-24T08:32:23.784Z,5.63
2022-12-24T08:33:24.436Z,5.63
2022-12-24T08:34:25.950Z,5.63
2022-12-24T08:35:26.295Z,5.63
2022-12-24T08:36:26.509Z,5.63
2022-12-24T08:37:26.426Z,5.63
2022-12-24T08:38:27.649Z,5.63
2022-12-24T08:39:28.319Z,11.25
2022-12-24T08:40:29.326Z,11.25
2022-12-24T08:41:30.576Z,11.25
2022-12-24T08:42:30.853Z,5.63
2022-12-24T08:43:31.145Z,5.63
2022-12-24T08:44:31.805Z,5.63
2022-12-24T08:45:36.280Z,5.63
2022-12-24T08:46:33.532Z,11.25
2022-12-24T08:47:33.800Z,11.25
2022-12-24T08:48:34.250Z,11.25
2022-12-24T08:49:34.502Z,11.25
2022-12-24T08:50:34.428Z,11.25
2022-12-24T08:51:35.713Z,11.25
2022-12-24T08:52:35.932Z,11.25
2022-12-24T08:53:36.436Z,11.25
2022-12-24T08:54:36.681Z,11.25
2022-12-24T08:55:37.282Z,11.25
2022-12-24T08:56:36.930Z,11.25
2022-12-24T08:57:38.157Z,11.25
2022-12-24T08:58:38.362Z,11.25
2022-12-24T08:59:38.947Z,11.25
2022-12-24T09:00:39.547Z,11.25
2022-12-24T09:01:40.348Z,16.88
2022-12-24T09:02:41.343Z,16.88
2022-12-24T09:03:45.186Z,16.88
2022-12-24T09:04:41.475Z,16.88
2022-12-24T09:05:41.544Z,16.88
2022-12-24T09:06:42.209Z,16.88
2022-12-24T09:07:42.363Z,16.88
2022-12-24T09:08:43.305Z,16.88
2022-12-24T09:09:49.908Z,16.88
2022-12-24T09:10:44.933Z,16.88
2022-12-24T09:11:44.858Z,16.88
2022-12-24T09:12:46.115Z,16.88
2022-12-24T09:13:46.348Z,16.88
2022-12-24T09:14:46.644Z,16.88
2022-12-24T09:15:47.976Z,22.5
2022-12-24T09:16:48.703Z,22.5
2022-12-24T09:17:49.114Z,22.5
2022-12-24T09:18:49.228Z,22.5
2022-12-24T09:19:49.223Z,22.5
2022-12-24T09:21:02.623Z,22.5
2022-12-24T09:21:50.553Z,22.5
2022-12-24T09:22:50.945Z,22.5
2022-12-24T09:23:51.315Z,22.5
2022-12-24T09:24:52.566Z,28.13
2022-12-24T09:25:52.925Z,28.13
2022-12-24T09:27:00.971Z,28.13
2022-12-24T09:27:53.954Z,28.13
2022-12-24T09:28:53.903Z,28.13
2022-12-24T09:29:55.140Z,28.13
2022-12-24T09:30:55.485Z,33.75
2022-12-24T09:31:55.956Z,33.75
2022-12-24T09:32:55.613Z,33.75
2022-12-24T09:33:56.536Z,33.75
2022-12-24T09:34:57.180Z,33.75
2022-12-24T09:35:57.931Z,39.38
2022-12-24T09:36:57.893Z,39.38
2022-12-24T09:37:58.886Z,39.38
2022-12-24T09:38:59.438Z,39.38
2022-12-24T09:40:00.981Z,45
2022-12-24T09:41:07.040Z,45
2022-12-24T09:42:01.985Z,45
2022-12-24T09:43:01.925Z,45
2022-12-24T09:44:02.867Z,45
2022-12-24T09:45:03.141Z,45
2022-12-24T09:46:03.568Z,39.38
2022-12-24T09:47:08.243Z,39.38
2022-12-24T09:48:04.229Z,39.38
2022-12-24T09:49:04.884Z,39.38
2022-12-24T09:50:05.560Z,39.38
2022-12-24T09:51:06.485Z,39.38
2022-12-24T09:52:07.472Z,39.38
2022-12-24T09:53:07.380Z,39.38
2022-12-24T09:54:08.888Z,39.38
2022-12-24T09:55:08.829Z,39.38
2022-12-24T09:56:10.632Z,39.38
2022-12-24T09:57:09.258Z,39.38
2022-12-24T09:58:10.260Z,39.38
2022-12-24T09:59:10.490Z,39.38
2022-12-24T10:00:11.117Z,39.38
2022-12-24T10:01:12.041Z,39.38
2022-12-24T10:02:12.835Z,39.38
2022-12-24T10:03:13.480Z,45
2022-12-24T10:04:13.309Z,45
2022-12-24T10:05:14.227Z,39.38
2022-12-24T10:06:15.075Z,39.38
2022-12-24T10:07:16.024Z,39.38
2022-12-24T10:08:16.996Z,39.38
2022-12-24T10:09:17.495Z,39.38
2022-12-24T10:10:17.745Z,39.38
2022-12-24T10:11:17.424Z,39.38
2022-12-24T10:12:18.093Z,39.38
2022-12-24T10:13:19.047Z,39.38
2022-12-24T10:14:20.588Z,39.38
2022-12-24T10:15:21.147Z,39.38
2022-12-24T10:16:21.078Z,39.38
2022-12-24T10:17:21.437Z,39.38
2022-12-24T10:18:22.698Z,39.38
2022-12-24T10:19:22.934Z,39.38
2022-12-24T10:20:22.894Z,39.38
2022-12-24T10:21:24.117Z,39.38
2022-12-24T10:22:23.798Z,39.38
2022-12-24T10:23:24.449Z,39.38
2022-12-24T10:24:25.433Z,39.38
2022-12-24T10:25:26.689Z,39.38
2022-12-24T10:26:26.764Z,39.38
2022-12-24T10:27:27.453Z,39.38
2022-12-24T10:28:28.659Z,39.38
2022-12-24T10:29:29.010Z,39.38
2022-12-24T10:30:37.579Z,39.38
2022-12-24T10:31:31.054Z,39.38
2022-12-24T10:32:31.001Z,39.38
2022-12-24T10:33:31.637Z,39.38
2022-12-24T10:34:32.554Z,39.38
2022-12-24T10:35:33.545Z,39.38
2022-12-24T10:36:34.547Z,39.38
2022-12-24T10:37:34.752Z,39.38
2022-12-24T10:38:35.305Z,39.38
2022-12-24T10:39:35.564Z,39.38
2022-12-24T10:40:36.859Z,39.38
2022-12-24T10:41:37.095Z,39.38
2022-12-24T10:42:38.054Z,39.38
2022-12-24T10:43:39.001Z,39.38
2022-12-24T10:44:39.618Z,39.38
2022-12-24T10:45:39.870Z,39.38
2022-12-24T10:46:40.666Z,39.38
2022-12-24T10:47:40.632Z,39.38
2022-12-24T10:48:46.586Z,39.38
2022-12-24T10:49:41.659Z,33.75
2022-12-24T10:50:42.887Z,33.75
2022-12-24T10:51:43.393Z,33.75
2022-12-24T10:52:43.358Z,33.75
2022-12-24T10:53:44.214Z,33.75
2022-12-24T10:54:45.093Z,33.75
2022-12-24T10:55:45.762Z,33.75
2022-12-24T10:56:46.809Z,33.75
2022-12-24T10:57:47.734Z,28.13
2022-12-24T10:58:49.246Z,28.13
2022-12-24T10:59:49.188Z,28.13
2022-12-24T11:00:53.337Z,28.13
2022-12-24T11:01:51.089Z,33.75
2022-12-24T11:02:52.309Z,33.75
2022-12-24T11:03:52.836Z,39.38
2022-12-24T11:04:53.071Z,39.38
2022-12-24T11:05:53.594Z,39.38
2022-12-24T11:07:00.197Z,33.75
2022-12-24T11:07:54.507Z,33.75
2022-12-24T11:08:54.508Z,33.75
2022-12-24T11:09:54.889Z,33.75
2022-12-24T11:10:56.438Z,33.75
2022-12-24T11:11:56.668Z,28.13
2022-12-24T11:13:47.865Z,28.13
2022-12-24T11:14:04.787Z,28.13
2022-12-24T11:15:05.709Z,28.13
2022-12-24T11:16:07.558Z,28.13
2022-12-24T11:17:07.717Z,28.13
2022-12-24T11:18:07.684Z,28.13
2022-12-24T11:19:08.949Z,28.13
2022-12-24T11:20:09.519Z,33.75
2022-12-24T11:21:09.765Z,33.75
2022-12-24T11:22:10.351Z,33.75
2022-12-24T11:23:10.578Z,33.75
2022-12-24T11:24:10.879Z,39.38
2022-12-24T11:25:11.842Z,39.38
2022-12-24T11:26:12.519Z,33.75
2022-12-24T11:27:14.166Z,33.75
2022-12-24T11:28:14.365Z,33.75
2022-12-24T11:29:14.888Z,33.75
2022-12-24T11:30:23.091Z,33.75
2022-12-24T11:31:15.898Z,33.75
2022-12-24T11:32:16.185Z,33.75
2022-12-24T11:33:16.444Z,33.75
2022-12-24T11:34:16.371Z,33.75
2022-12-24T11:35:16.770Z,33.75
2022-12-24T11:36:18.785Z,33.75
2022-12-24T11:37:26.170Z,33.75
2022-12-24T11:38:20.669Z,33.75
2022-12-24T11:39:20.596Z,33.75
2022-12-24T11:40:21.519Z,39.38
2022-12-24T11:41:22.546Z,39.38
2022-12-24T11:42:23.508Z,39.38
2022-12-24T11:43:30.706Z,39.38
2022-12-24T11:44:24.345Z,39.38
2022-12-24T11:45:25.894Z,39.38
2022-12-24T11:46:26.201Z,39.38
2022-12-24T11:47:26.231Z,39.38
2022-12-24T11:48:25.865Z,39.38
2022-12-24T11:49:27.081Z,45
2022-12-24T11:50:35.147Z,45
2022-12-24T11:51:28.155Z,45
2022-12-24T11:52:29.452Z,45
2022-12-24T11:53:29.943Z,45
2022-12-24T11:54:29.381Z,39.38
2022-12-24T11:55:33.196Z,39.38
2022-12-24T11:56:30.581Z,39.38
2022-12-24T11:57:31.621Z,39.38
2022-12-24T11:58:31.862Z,39.38
2022-12-24T11:59:32.100Z,39.38
2022-12-24T12:00:32.342Z,39.38
2022-12-24T12:01:33.191Z,39.38
2022-12-24T12:02:33.737Z,39.38
2022-12-24T12:03:33.684Z,39.38
2022-12-24T12:04:34.498Z,39.38
2022-12-24T12:05:35.730Z,39.38
2022-12-24T12:06:35.694Z,39.38
2022-12-24T12:07:36.118Z,39.38
2022-12-24T12:08:37.333Z,39.38
2022-12-24T12:09:37.839Z,33.75
2022-12-24T12:10:38.350Z,33.75
2022-12-24T12:11:38.895Z,33.75
2022-12-24T12:12:39.115Z,33.75
2022-12-24T12:13:39.370Z,33.75
2022-12-24T12:14:39.861Z,33.75
2022-12-24T12:15:39.524Z,33.75
2022-12-24T12:16:41.284Z,33.75
2022-12-24T12:17:41.363Z,33.75
2022-12-24T12:18:41.559Z,33.75
2022-12-24T12:19:41.480Z,33.75
2022-12-24T12:20:42.728Z,28.13
2022-12-24T12:21:42.958Z,28.13
2022-12-24T12:22:42.990Z,33.75
2022-12-24T12:23:43.931Z,33.75
2022-12-24T12:24:48.728Z,33.75
2022-12-24T12:25:45.673Z,33.75
2022-12-24T12:26:46.379Z,33.75
2022-12-24T12:27:47.176Z,39.38
2022-12-24T12:28:48.393Z,39.38
2022-12-24T12:29:48.471Z,39.38
2022-12-24T12:30:48.392Z,39.38
2022-12-24T12:31:50.240Z,39.38
2022-12-24T12:32:50.546Z,39.38
2022-12-24T12:33:50.555Z,39.38
2022-12-24T12:34:51.795Z,39.38
2022-12-24T12:35:52.035Z,39.38
2022-12-24T12:36:52.740Z,33.75
2022-12-24T12:37:53.191Z,33.75
2022-12-24T12:38:54.769Z,33.75
2022-12-24T12:39:55.161Z,33.75
2022-12-24T12:40:55.669Z,33.75
2022-12-24T12:41:55.911Z,33.75
2022-12-24T12:42:56.144Z,33.75
2022-12-24T12:43:56.643Z,33.75
2022-12-24T12:44:57.144Z,33.75
2022-12-24T12:45:57.650Z,28.13
2022-12-24T12:46:57.814Z,28.13
2022-12-24T12:47:58.236Z,28.13
2022-12-24T12:49:05.780Z,22.5
2022-12-24T12:49:58.983Z,22.5
2022-12-24T12:50:59.200Z,22.5
2022-12-24T12:51:59.713Z,22.5
2022-12-24T12:52:59.637Z,22.5
2022-12-24T12:53:59.847Z,22.5
2022-12-24T12:55:00.103Z,16.88
2022-12-24T12:56:00.415Z,22.5
2022-12-24T12:57:00.960Z,22.5
2022-12-24T12:58:01.034Z,16.88
2022-12-24T12:59:00.982Z,16.88
2022-12-24T13:00:01.946Z,22.5
2022-12-24T13:01:03.614Z,22.5
2022-12-24T13:02:04.754Z,16.88
2022-12-24T13:03:04.619Z,22.5
2022-12-24T13:04:04.200Z,22.5
2022-12-24T13:05:04.127Z,28.13
2022-12-24T13:06:05.069Z,28.13
2022-12-24T13:07:05.014Z,28.13
2022-12-24T13:08:06.622Z,28.13
2022-12-24T13:09:06.548Z,28.13
2022-12-24T13:10:07.782Z,28.13
2022-12-24T13:11:08.724Z,28.13
2022-12-24T13:12:08.946Z,28.13
2022-12-24T13:13:10.724Z,33.75
2022-12-24T13:14:10.250Z,33.75
2022-12-24T13:15:10.747Z,33.75
2022-12-24T13:16:11.383Z,33.75
2022-12-24T13:17:11.172Z,28.13
2022-12-24T13:18:11.654Z,28.13
2022-12-24T13:19:12.618Z,28.13
2022-12-24T13:20:13.876Z,28.13
2022-12-24T13:21:14.151Z,28.13
2022-12-24T13:22:14.681Z,28.13
2022-12-24T13:23:14.340Z,28.13
2022-12-24T13:24:15.608Z,22.5
2022-12-24T13:25:15.558Z,22.5
2022-12-24T13:26:16.789Z,22.5
2022-12-24T13:27:16.787Z,28.13
2022-12-24T13:28:16.862Z,28.13
2022-12-24T13:29:16.489Z,28.13
2022-12-24T13:30:29.082Z,28.13
2022-12-24T13:31:18.297Z,28.13
2022-12-24T13:32:18.846Z,22.5
2022-12-24T13:33:19.174Z,22.5
2022-12-24T13:34:19.419Z,22.5
2022-12-24T13:35:19.062Z,22.5
2022-12-24T13:36:20.032Z,22.5
2022-12-24T13:37:21.250Z,22.5
2022-12-24T13:38:22.005Z,22.5
2022-12-24T13:39:22.644Z,16.88
2022-12-24T13:40:23.596Z,16.88
2022-12-24T13:41:23.830Z,16.88
2022-12-24T13:42:24.362Z,16.88
2022-12-24T13:43:24.324Z,16.88
2022-12-24T13:44:24.763Z,16.88
2022-12-24T13:45:24.512Z,16.88
2022-12-24T13:46:25.817Z,16.88
2022-12-24T13:47:32.497Z,16.88
2022-12-24T13:48:27.461Z,16.88
2022-12-24T13:49:27.689Z,16.88
2022-12-24T13:50:28.337Z,16.88
2022-12-24T13:51:29.304Z,16.88
2022-12-24T13:52:30.569Z,16.88
2022-12-24T13:53:29.966Z,16.88
2022-12-24T13:54:31.200Z,16.88
2022-12-24T13:55:31.722Z,16.88
2022-12-24T13:56:32.311Z,16.88
2022-12-24T13:57:32.554Z,16.88
2022-12-24T13:58:33.868Z,16.88
2022-12-24T13:59:39.701Z,16.88
2022-12-24T14:00:34.801Z,16.88
2022-12-24T14:01:35.808Z,16.88
2022-12-24T14:02:36.036Z,16.88
2022-12-24T14:03:36.296Z,16.88
2022-12-24T14:04:35.871Z,16.88
2022-12-24T14:05:38.383Z,11.25